createdAt,value
2023-02-17T09:44:17.615Z,35.45
2023-02-17T09:46:59.515Z,34.89
2023-02-17T09:49:10.356Z,34.61
2023-02-17T09:51:36.709Z,34.51
2023-02-17T09:54:03.100Z,34.76
2023-02-17T09:56:29.462Z,34.75
2023-02-17T09:58:55.926Z,35.01
2023-02-17T10:01:22.282Z,34.98
2023-02-17T10:03:48.608Z,34.91
2023-02-17T10:06:14.951Z,34.75
2023-02-17T10:08:41.372Z,34.61
2023-02-17T10:11:07.715Z,34.39
2023-02-17T10:13:34.147Z,34.51
2023-02-17T10:16:00.457Z,34.60
2023-02-17T10:18:26.876Z,34.90
2023-02-17T10:20:53.227Z,34.90
2023-02-17T10:23:19.565Z,34.84
2023-02-17T10:25:45.976Z,35.50
2023-02-17T10:28:12.319Z,35.50
2023-02-17T10:30:38.785Z,35.00
2023-02-17T10:33:05.074Z,34.95
2023-02-17T10:35:31.463Z,35.01
2023-02-17T10:37:57.835Z,34.98
2023-02-17T10:40:24.185Z,34.96
2023-02-17T10:42:50.731Z,34.91
2023-02-17T10:45:16.969Z,34.93
2023-02-17T10:47:43.426Z,34.47
2023-02-17T10:50:09.801Z,34.25
2023-02-17T10:52:36.184Z,34.00
2023-02-17T10:55:06.593Z,34.21
2023-02-17T10:57:28.946Z,34.11
2023-02-17T10:59:55.276Z,34.28
2023-02-17T11:02:21.675Z,34.28
2023-02-17T11:04:48.025Z,34.13
2023-02-17T11:07:14.412Z,34.53
2023-02-17T11:09:40.759Z,34.82
2023-02-17T11:12:07.160Z,35.24
2023-02-17T11:14:33.505Z,35.24
2023-02-17T11:16:59.947Z,35.39
2023-02-17T11:19:28.727Z,35.67
2023-02-17T11:21:55.090Z,35.67
2023-02-17T11:24:21.418Z,35.78
2023-02-17T11:26:47.794Z,36.01
2023-02-17T11:29:14.142Z,36.01
2023-02-17T11:31:40.622Z,36.09
2023-02-17T11:34:06.889Z,35.98
2023-02-17T11:36:33.360Z,35.77
2023-02-17T11:38:59.719Z,35.60
2023-02-17T11:41:26.096Z,35.54
2023-02-17T11:43:52.438Z,35.48
2023-02-17T11:46:18.861Z,35.45
2023-02-17T11:48:45.161Z,35.71
2023-02-17T11:51:11.536Z,35.71
2023-02-17T11:53:37.902Z,35.57
2023-02-17T11:56:04.668Z,35.75
2023-02-17T11:58:30.636Z,35.74
2023-02-17T12:00:58.340Z,35.94
2023-02-17T12:03:23.398Z,36.04
2023-02-17T12:05:49.755Z,36.03
2023-02-17T12:08:16.101Z,36.12
2023-02-17T12:10:42.483Z,35.98
2023-02-17T12:13:08.825Z,35.98
2023-02-17T12:15:35.296Z,35.49
2023-02-17T12:18:01.565Z,34.76
2023-02-17T12:20:27.961Z,34.76
2023-02-17T12:22:54.304Z,35.17
2023-02-17T12:25:20.702Z,35.51
2023-02-17T12:27:47.062Z,35.02
2023-02-17T12:30:13.570Z,35.02
2023-02-17T12:32:39.856Z,34.92
2023-02-17T12:35:06.235Z,34.92
2023-02-17T12:37:32.590Z,35.31
2023-02-17T12:39:58.973Z,35.37
2023-02-17T12:42:25.316Z,35.43
2023-02-17T12:44:51.730Z,35.50
2023-02-17T12:47:18.078Z,35.52
2023-02-17T12:49:44.475Z,35.53
2023-02-17T12:52:10.820Z,35.71
2023-02-17T12:54:37.236Z,35.78
2023-02-17T12:57:03.590Z,35.79
2023-02-17T12:59:29.981Z,35.87
2023-02-17T13:01:56.319Z,35.55
2023-02-17T13:04:22.712Z,35.55
2023-02-17T13:06:49.069Z,35.11
2023-02-17T13:09:15.450Z,35.04
2023-02-17T13:11:41.852Z,35.10
2023-02-17T13:14:08.291Z,35.18
2023-02-17T13:16:34.648Z,35.26
2023-02-17T13:19:01.036Z,35.40
2023-02-17T13:21:27.732Z,35.41
2023-02-17T13:23:54.111Z,35.53
2023-02-17T13:26:20.470Z,35.06
2023-02-17T13:28:46.874Z,35.06
2023-02-17T13:31:13.330Z,35.10
2023-02-17T13:33:39.620Z,34.84
2023-02-17T13:36:06.266Z,34.84
2023-02-17T13:38:32.454Z,35.42
2023-02-17T13:40:58.749Z,35.36
2023-02-17T13:43:27.267Z,35.41
2023-02-17T13:45:53.668Z,35.78
2023-02-17T13:48:20.057Z,35.71
2023-02-17T13:50:46.415Z,35.53
2023-02-17T13:53:12.853Z,34.91
2023-02-17T13:55:39.184Z,34.91
2023-02-17T13:58:05.590Z,34.91
2023-02-17T14:00:31.946Z,34.91
2023-02-17T14:02:58.349Z,34.91
2023-02-17T14:05:24.719Z,34.91
2023-02-17T14:07:51.112Z,34.91
2023-02-17T14:10:17.469Z,35.23
2023-02-17T14:12:43.903Z,35.67
2023-02-17T14:15:10.258Z,35.67
2023-02-17T14:17:36.665Z,35.50
2023-02-17T14:20:03.043Z,35.32
2023-02-17T14:22:29.423Z,35.32
2023-02-17T14:24:55.768Z,34.70
2023-02-17T14:27:22.165Z,34.91
2023-02-17T14:29:48.528Z,34.91
2023-02-17T14:32:14.979Z,35.63
2023-02-17T14:34:41.255Z,35.42
2023-02-17T14:37:07.698Z,35.42
2023-02-17T14:39:34.047Z,35.34
2023-02-17T14:42:00.476Z,35.25
2023-02-17T14:44:26.820Z,35.30
2023-02-17T14:46:53.248Z,35.15
2023-02-17T14:49:20.540Z,35.04
2023-02-17T14:51:45.987Z,34.96
2023-02-17T14:54:12.327Z,34.84
2023-02-17T14:56:38.730Z,34.84
2023-02-17T14:59:05.068Z,35.13
2023-02-17T15:01:31.516Z,35.09
2023-02-17T15:03:57.842Z,35.14
2023-02-17T15:06:26.060Z,34.50
2023-02-17T15:08:50.576Z,34.50
2023-02-17T15:11:16.974Z,34.83
2023-02-17T15:13:43.335Z,34.88
2023-02-17T15:16:10.106Z,34.77
2023-02-17T15:18:36.073Z,34.43
2023-02-17T15:21:02.470Z,34.75
2023-02-17T15:23:28.829Z,34.65
2023-02-17T15:25:55.206Z,34.65
2023-02-17T15:28:21.541Z,34.88
2023-02-17T15:30:47.931Z,34.85
2023-02-17T15:33:14.280Z,34.29
2023-02-17T15:35:40.668Z,34.29
2023-02-17T15:38:07.011Z,34.76
2023-02-17T15:40:33.395Z,34.75
2023-02-17T15:42:59.732Z,34.82
2023-02-17T15:45:26.125Z,34.77
2023-02-17T15:47:53.830Z,34.72
2023-02-17T15:50:20.168Z,34.83
2023-02-17T15:52:45.202Z,34.83
2023-02-17T15:55:11.573Z,34.54
2023-02-17T15:57:37.915Z,34.49
2023-02-17T16:00:04.319Z,34.80
2023-02-17T16:02:30.639Z,34.70
2023-02-17T16:04:57.045Z,34.73
2023-02-17T16:07:23.366Z,34.64
2023-02-17T16:09:49.801Z,34.62
2023-02-17T16:12:16.127Z,34.85
2023-02-17T16:14:42.509Z,34.85
2023-02-17T16:17:08.842Z,34.76
2023-02-17T16:19:35.231Z,34.76
2023-02-17T16:22:01.589Z,34.81
2023-02-17T16:24:27.965Z,34.66
2023-02-17T16:26:54.341Z,34.66
2023-02-17T16:29:20.726Z,34.74
2023-02-17T16:31:47.170Z,34.71
2023-02-17T16:34:13.490Z,34.71
2023-02-17T16:36:39.844Z,34.60
2023-02-17T16:39:06.258Z,34.60
2023-02-17T16:41:32.601Z,34.52
2023-02-17T16:43:59.005Z,34.30
2023-02-17T16:46:25.347Z,34.33
2023-02-17T16:48:51.730Z,34.55
2023-02-17T16:51:18.080Z,34.58
2023-02-17T16:53:44.453Z,34.67
2023-02-17T16:56:10.795Z,34.67
2023-02-17T16:58:37.177Z,34.33
2023-02-17T17:01:03.518Z,34.33
2023-02-17T17:03:29.990Z,34.50
2023-02-17T17:05:56.254Z,34.79
2023-02-17T17:08:22.669Z,34.79
2023-02-17T17:10:49.009Z,34.81
2023-02-17T17:13:15.395Z,34.39
2023-02-17T17:15:41.739Z,34.26
2023-02-17T17:18:08.120Z,33.79
2023-02-17T17:20:34.457Z,33.73
2023-02-17T17:23:00.840Z,33.73
2023-02-17T17:25:27.179Z,34.17
2023-02-17T17:27:53.571Z,34.28
2023-02-17T17:30:19.933Z,34.57
2023-02-17T17:32:46.275Z,34.53
2023-02-17T17:35:12.621Z,34.25
2023-02-17T17:37:39.658Z,34.13
2023-02-17T17:40:05.328Z,34.19
2023-02-17T17:42:31.714Z,34.29
2023-02-17T17:44:58.049Z,34.29
2023-02-17T17:47:29.838Z,34.43
2023-02-17T17:49:50.777Z,34.54
2023-02-17T17:52:17.167Z,34.61
2023-02-17T17:54:43.502Z,34.69
2023-02-17T17:57:09.911Z,34.56
2023-02-17T17:59:36.229Z,34.40
2023-02-17T18:02:02.645Z,34.16
2023-02-17T18:04:29.079Z,33.99
2023-02-17T18:06:57.077Z,33.98
2023-02-17T18:09:31.320Z,34.08
2023-02-17T18:11:48.148Z,34.24
2023-02-17T18:14:14.511Z,34.43
2023-02-17T18:16:40.900Z,34.57
2023-02-17T18:19:07.234Z,34.69
2023-02-17T18:21:33.644Z,34.86
2023-02-17T18:23:59.978Z,34.88
2023-02-17T18:26:26.351Z,34.88
2023-02-17T18:28:52.701Z,34.28
2023-02-17T18:31:19.254Z,34.22
2023-02-17T18:33:45.469Z,34.26
2023-02-17T18:36:11.855Z,34.26
2023-02-17T18:38:38.201Z,34.45
2023-02-17T18:41:04.580Z,34.59
2023-02-17T18:43:30.929Z,34.42
2023-02-17T18:45:57.315Z,34.75
2023-02-17T18:48:23.657Z,34.75
2023-02-17T18:50:50.028Z,34.56
2023-02-17T18:53:16.361Z,34.46
2023-02-17T18:55:42.769Z,34.56
2023-02-17T18:58:10.995Z,34.62
2023-02-17T19:00:35.491Z,34.39
2023-02-17T19:03:01.879Z,34.24
2023-02-17T19:05:28.237Z,34.23
2023-02-17T19:07:54.583Z,34.29
2023-02-17T19:10:20.971Z,34.40
2023-02-17T19:12:47.314Z,34.52
2023-02-17T19:15:13.706Z,34.64
2023-02-17T19:17:40.053Z,34.64
2023-02-17T19:20:06.440Z,34.68
2023-02-17T19:22:32.798Z,34.71
2023-02-17T19:24:59.179Z,34.80
2023-02-17T19:27:25.522Z,34.83
2023-02-17T19:29:51.904Z,34.91
2023-02-17T19:32:18.292Z,34.95
2023-02-17T19:34:44.649Z,35.06
2023-02-17T19:37:10.981Z,35.09
2023-02-17T19:39:37.384Z,35.14
2023-02-17T19:42:03.730Z,35.15
2023-02-17T19:44:30.097Z,35.20
2023-02-17T19:46:56.449Z,35.29
2023-02-17T19:49:22.841Z,35.26
2023-02-17T19:51:49.224Z,35.38
2023-02-17T19:54:15.599Z,35.38
2023-02-17T19:56:41.984Z,35.47
2023-02-17T19:59:08.321Z,35.47
2023-02-17T20:01:34.700Z,35.54
2023-02-17T20:04:01.057Z,35.52
2023-02-17T20:06:27.443Z,35.62
2023-02-17T20:08:53.795Z,35.62
2023-02-17T20:11:20.177Z,35.69
2023-02-17T20:13:46.894Z,35.71
2023-02-17T20:16:12.986Z,35.75
2023-02-17T20:18:39.266Z,35.84
2023-02-17T20:21:05.649Z,35.86
2023-02-17T20:23:32.039Z,35.86
2023-02-17T20:25:58.577Z,35.91
2023-02-17T20:28:25.117Z,35.93
2023-02-17T20:30:51.133Z,35.97
2023-02-17T20:33:17.469Z,35.98
2023-02-17T20:35:43.874Z,36.01
2023-02-17T20:38:10.219Z,36.06
2023-02-17T20:40:36.604Z,36.07
2023-02-17T20:43:02.954Z,36.12
2023-02-17T20:45:29.349Z,36.18
2023-02-17T20:47:55.697Z,36.19
2023-02-17T20:50:22.110Z,36.21
2023-02-17T20:52:48.698Z,36.27
2023-02-17T20:55:14.899Z,36.28
2023-02-17T20:57:41.240Z,36.29
2023-02-17T21:00:07.629Z,36.38
2023-02-17T21:02:34.013Z,36.43
2023-02-17T21:05:00.368Z,36.41
2023-02-17T21:07:26.699Z,36.50
2023-02-17T21:09:53.083Z,36.53
2023-02-17T21:12:19.420Z,36.51
2023-02-17T21:14:46.221Z,36.55
2023-02-17T21:17:12.149Z,36.61
2023-02-17T21:19:38.551Z,36.63
2023-02-17T21:22:04.902Z,36.64
2023-02-17T21:24:31.282Z,36.70
2023-02-17T21:26:57.694Z,36.73
2023-02-17T21:29:24.079Z,36.78
2023-02-17T21:31:50.505Z,36.78
2023-02-17T21:34:16.842Z,36.77
2023-02-17T21:36:43.175Z,36.84
2023-02-17T21:39:09.563Z,36.88
2023-02-17T21:41:35.946Z,36.91
2023-02-17T21:44:02.324Z,36.95
2023-02-17T21:46:28.661Z,36.96
2023-02-17T21:48:55.049Z,37.00
2023-02-17T21:51:21.393Z,36.99
2023-02-17T21:53:47.773Z,37.04
2023-02-17T21:56:14.120Z,37.05
2023-02-17T21:58:40.499Z,37.10
2023-02-17T22:01:06.896Z,37.15
2023-02-17T22:03:33.228Z,37.16
2023-02-17T22:05:59.565Z,37.19
2023-02-17T22:08:25.956Z,37.20
2023-02-17T22:10:52.286Z,37.24
2023-02-17T22:13:18.673Z,37.28
2023-02-17T22:15:45.015Z,37.25
2023-02-17T22:18:11.410Z,37.31
2023-02-17T22:20:37.761Z,37.33
2023-02-17T22:23:04.141Z,37.34
2023-02-17T22:25:30.503Z,37.40
2023-02-17T22:27:56.924Z,37.40
2023-02-17T22:30:24.325Z,37.42
2023-02-17T22:32:49.703Z,37.43
2023-02-17T22:35:16.049Z,37.46
2023-02-17T22:37:42.434Z,37.47
2023-02-17T22:40:08.769Z,37.51
2023-02-17T22:42:35.201Z,37.50
2023-02-17T22:45:01.534Z,37.54
2023-02-17T22:47:27.928Z,37.55
2023-02-17T22:49:54.269Z,37.58
2023-02-17T22:52:20.660Z,37.60
2023-02-17T22:54:47.007Z,37.59
2023-02-17T22:57:14.827Z,37.63
2023-02-17T22:59:39.734Z,37.63
2023-02-17T23:02:06.144Z,37.69
2023-02-17T23:04:32.515Z,37.71
2023-02-17T23:06:58.854Z,37.69
2023-02-17T23:09:25.202Z,37.71
2023-02-17T23:11:51.584Z,37.76
2023-02-17T23:14:17.969Z,37.76
2023-02-17T23:16:44.358Z,37.77
2023-02-17T23:19:10.691Z,37.80
2023-02-17T23:21:37.056Z,37.81
2023-02-17T23:24:03.410Z,37.85
2023-02-17T23:26:29.796Z,37.83
2023-02-17T23:28:56.165Z,37.85
2023-02-17T23:31:22.654Z,37.88
2023-02-17T23:33:48.895Z,37.93
2023-02-17T23:36:15.293Z,37.94
2023-02-17T23:38:41.664Z,37.96
2023-02-17T23:41:08.047Z,37.95
2023-02-17T23:43:34.397Z,37.95
2023-02-17T23:46:00.852Z,37.99
2023-02-17T23:48:27.128Z,38.02
2023-02-17T23:50:53.503Z,38.01
2023-02-17T23:53:19.849Z,38.05
2023-02-17T23:55:46.235Z,38.07
2023-02-17T23:58:12.569Z,38.14
